sensor_id;sensor_type;location;lat;lon;timestamp;P1;durP1;ratioP1;P2;durP2;ratioP2
36653;SDS011;22650;49.350;20.898;2022-09-17T00:02:19;9.88;;;5.97;;
36653;SDS011;22650;49.350;20.898;2022-09-17T00:04:53;10.02;;;4.95;;
36653;SDS011;22650;49.350;20.898;2022-09-17T00:07:27;12.52;;;5.63;;
36653;SDS011;22650;49.350;20.898;2022-09-17T00:10:02;9.48;;;5.97;;
36653;SDS011;22650;49.350;20.898;2022-09-17T00:12:36;12.25;;;5.20;;
36653;SDS011;22650;49.350;20.898;2022-09-17T00:15:10;9.38;;;5.00;;
36653;SDS011;22650;49.350;20.898;2022-09-17T00:17:44;7.07;;;4.35;;
36653;SDS011;22650;49.350;20.898;2022-09-17T00:20:17;8.50;;;4.53;;
36653;SDS011;22650;49.350;20.898;2022-09-17T00:22:52;9.02;;;5.00;;
36653;SDS011;22650;49.350;20.898;2022-09-17T00:25:27;9.65;;;4.13;;
36653;SDS011;22650;49.350;20.898;2022-09-17T00:28:02;6.80;;;4.20;;
36653;SDS011;22650;49.350;20.898;2022-09-17T00:30:37;8.02;;;4.00;;
36653;SDS011;22650;49.350;20.898;2022-09-17T00:33:12;9.38;;;4.63;;
36653;SDS011;22650;49.350;20.898;2022-09-17T00:35:56;6.40;;;3.20;;
36653;SDS011;22650;49.350;20.898;2022-09-17T00:38:30;6.68;;;3.20;;
36653;SDS011;22650;49.350;20.898;2022-09-17T00:41:06;6.32;;;3.47;;
36653;SDS011;22650;49.350;20.898;2022-09-17T00:43:42;13.98;;;4.03;;
36653;SDS011;22650;49.350;20.898;2022-09-17T00:46:21;6.40;;;3.67;;
36653;SDS011;22650;49.350;20.898;2022-09-17T00:49:00;8.98;;;4.50;;
36653;SDS011;22650;49.350;20.898;2022-09-17T00:51:38;8.38;;;3.83;;
36653;SDS011;22650;49.350;20.898;2022-09-17T00:54:15;10.93;;;3.90;;
36653;SDS011;22650;49.350;20.898;2022-09-17T00:56:50;7.20;;;4.07;;
36653;SDS011;22650;49.350;20.898;2022-09-17T00:59:24;6.63;;;3.70;;
36653;SDS011;22650;49.350;20.898;2022-09-17T01:01:58;6.75;;;4.15;;
36653;SDS011;22650;49.350;20.898;2022-09-17T01:04:32;7.25;;;4.28;;
36653;SDS011;22650;49.350;20.898;2022-09-17T01:07:07;7.07;;;3.60;;
36653;SDS011;22650;49.350;20.898;2022-09-17T01:09:47;6.03;;;3.35;;
36653;SDS011;22650;49.350;20.898;2022-09-17T01:12:35;8.55;;;3.58;;
36653;SDS011;22650;49.350;20.898;2022-09-17T01:15:24;8.68;;;3.92;;
36653;SDS011;22650;49.350;20.898;2022-09-17T01:18:09;9.00;;;3.03;;
36653;SDS011;22650;49.350;20.898;2022-09-17T01:33:35;6.97;;;3.33;;
36653;SDS011;22650;49.350;20.898;2022-09-17T01:36:18;4.50;;;3.20;;
36653;SDS011;22650;49.350;20.898;2022-09-17T01:39:03;9.25;;;3.65;;
36653;SDS011;22650;49.350;20.898;2022-09-17T01:41:45;5.60;;;3.50;;
36653;SDS011;22650;49.350;20.898;2022-09-17T01:44:27;7.22;;;3.20;;
36653;SDS011;22650;49.350;20.898;2022-09-17T01:47:09;9.10;;;3.58;;
36653;SDS011;22650;49.350;20.898;2022-09-17T01:49:52;4.38;;;2.38;;
36653;SDS011;22650;49.350;20.898;2022-09-17T01:52:31;8.85;;;3.28;;
36653;SDS011;22650;49.350;20.898;2022-09-17T01:55:08;7.35;;;3.25;;
36653;SDS011;22650;49.350;20.898;2022-09-17T01:57:46;10.38;;;3.45;;
36653;SDS011;22650;49.350;20.898;2022-09-17T02:00:26;11.45;;;3.22;;
36653;SDS011;22650;49.350;20.898;2022-09-17T02:03:03;5.03;;;3.03;;
36653;SDS011;22650;49.350;20.898;2022-09-17T02:05:42;4.55;;;2.95;;
36653;SDS011;22650;49.350;20.898;2022-09-17T02:08:19;5.90;;;2.53;;
36653;SDS011;22650;49.350;20.898;2022-09-17T02:10:55;4.47;;;2.75;;
36653;SDS011;22650;49.350;20.898;2022-09-17T02:13:33;5.25;;;3.05;;
36653;SDS011;22650;49.350;20.898;2022-09-17T02:16:11;4.93;;;2.55;;
36653;SDS011;22650;49.350;20.898;2022-09-17T02:18:52;5.03;;;2.75;;
36653;SDS011;22650;49.350;20.898;2022-09-17T02:21:32;4.50;;;2.72;;
36653;SDS011;22650;49.350;20.898;2022-09-17T02:24:15;3.92;;;2.75;;
36653;SDS011;22650;49.350;20.898;2022-09-17T02:26:54;5.00;;;2.75;;
36653;SDS011;22650;49.350;20.898;2022-09-17T02:29:31;5.70;;;2.47;;
36653;SDS011;22650;49.350;20.898;2022-09-17T02:32:06;6.90;;;2.80;;
36653;SDS011;22650;49.350;20.898;2022-09-17T02:34:42;7.50;;;3.22;;
36653;SDS011;22650;49.350;20.898;2022-09-17T02:37:15;4.93;;;2.97;;
36653;SDS011;22650;49.350;20.898;2022-09-17T02:39:49;3.22;;;2.30;;
36653;SDS011;22650;49.350;20.898;2022-09-17T02:42:25;3.92;;;2.38;;
36653;SDS011;22650;49.350;20.898;2022-09-17T02:45:05;5.57;;;2.55;;
36653;SDS011;22650;49.350;20.898;2022-09-17T02:47:45;5.65;;;2.70;;
36653;SDS011;22650;49.350;20.898;2022-09-17T02:50:44;6.82;;;2.25;;
36653;SDS011;22650;49.350;20.898;2022-09-17T02:53:38;4.55;;;2.30;;
36653;SDS011;22650;49.350;20.898;2022-09-17T02:56:20;4.00;;;2.55;;
36653;SDS011;22650;49.350;20.898;2022-09-17T02:59:03;3.67;;;2.60;;
36653;SDS011;22650;49.350;20.898;2022-09-17T03:01:45;3.30;;;2.00;;
36653;SDS011;22650;49.350;20.898;2022-09-17T03:04:23;4.13;;;2.38;;
36653;SDS011;22650;49.350;20.898;2022-09-17T03:07:01;3.63;;;2.42;;
36653;SDS011;22650;49.350;20.898;2022-09-17T03:09:39;8.43;;;2.22;;
36653;SDS011;22650;49.350;20.898;2022-09-17T03:12:14;3.90;;;2.75;;
36653;SDS011;22650;49.350;20.898;2022-09-17T03:14:48;4.63;;;2.38;;
36653;SDS011;22650;49.350;20.898;2022-09-17T03:17:21;5.53;;;2.88;;
36653;SDS011;22650;49.350;20.898;2022-09-17T03:19:55;4.75;;;2.35;;
36653;SDS011;22650;49.350;20.898;2022-09-17T03:22:30;3.25;;;2.08;;
36653;SDS011;22650;49.350;20.898;2022-09-17T03:25:04;5.95;;;2.58;;
36653;SDS011;22650;49.350;20.898;2022-09-17T03:27:38;7.03;;;1.92;;
36653;SDS011;22650;49.350;20.898;2022-09-17T03:30:11;2.25;;;1.98;;
36653;SDS011;22650;49.350;20.898;2022-09-17T03:32:45;5.05;;;1.95;;
36653;SDS011;22650;49.350;20.898;2022-09-17T03:35:18;6.65;;;2.25;;
36653;SDS011;22650;49.350;20.898;2022-09-17T03:37:54;6.38;;;2.00;;
36653;SDS011;22650;49.350;20.898;2022-09-17T03:40:27;2.97;;;2.38;;
36653;SDS011;22650;49.350;20.898;2022-09-17T03:43:01;8.05;;;2.42;;
36653;SDS011;22650;49.350;20.898;2022-09-17T03:45:35;4.78;;;2.40;;
36653;SDS011;22650;49.350;20.898;2022-09-17T03:48:09;3.38;;;2.22;;
36653;SDS011;22650;49.350;20.898;2022-09-17T03:50:42;2.97;;;2.00;;
36653;SDS011;22650;49.350;20.898;2022-09-17T03:53:17;3.85;;;2.63;;
36653;SDS011;22650;49.350;20.898;2022-09-17T03:55:51;3.58;;;2.13;;
36653;SDS011;22650;49.350;20.898;2022-09-17T03:58:24;5.18;;;2.60;;
36653;SDS011;22650;49.350;20.898;2022-09-17T04:00:58;4.07;;;2.10;;
36653;SDS011;22650;49.350;20.898;2022-09-17T04:03:31;4.97;;;2.97;;
36653;SDS011;22650;49.350;20.898;2022-09-17T04:06:06;5.53;;;2.58;;
36653;SDS011;22650;49.350;20.898;2022-09-17T04:08:41;4.07;;;2.40;;
36653;SDS011;22650;49.350;20.898;2022-09-17T04:11:15;3.05;;;2.20;;
36653;SDS011;22650;49.350;20.898;2022-09-17T04:13:48;4.35;;;2.20;;
36653;SDS011;22650;49.350;20.898;2022-09-17T04:16:22;8.55;;;3.00;;
36653;SDS011;22650;49.350;20.898;2022-09-17T04:18:56;5.85;;;3.75;;
36653;SDS011;22650;49.350;20.898;2022-09-17T04:21:29;6.00;;;3.08;;
36653;SDS011;22650;49.350;20.898;2022-09-17T04:24:04;7.00;;;2.65;;
36653;SDS011;22650;49.350;20.898;2022-09-17T04:26:38;4.78;;;2.50;;
36653;SDS011;22650;49.350;20.898;2022-09-17T04:29:11;9.07;;;3.05;;
36653;SDS011;22650;49.350;20.898;2022-09-17T04:31:45;6.32;;;3.72;;
36653;SDS011;22650;49.350;20.898;2022-09-17T04:34:19;5.18;;;3.60;;
36653;SDS011;22650;49.350;20.898;2022-09-17T04:36:52;7.15;;;3.47;;
36653;SDS011;22650;49.350;20.898;2022-09-17T04:39:27;5.93;;;3.40;;
36653;SDS011;22650;49.350;20.898;2022-09-17T04:42:01;6.32;;;3.55;;
36653;SDS011;22650;49.350;20.898;2022-09-17T04:44:34;10.07;;;4.32;;
36653;SDS011;22650;49.350;20.898;2022-09-17T04:47:08;10.02;;;5.20;;
36653;SDS011;22650;49.350;20.898;2022-09-17T04:49:41;15.13;;;4.82;;
36653;SDS011;22650;49.350;20.898;2022-09-17T04:52:15;8.80;;;4.13;;
36653;SDS011;22650;49.350;20.898;2022-09-17T04:54:50;10.23;;;4.53;;
36653;SDS011;22650;49.350;20.898;2022-09-17T04:57:24;6.78;;;4.18;;
36653;SDS011;22650;49.350;20.898;2022-09-17T04:59:58;8.25;;;4.30;;
36653;SDS011;22650;49.350;20.898;2022-09-17T05:02:32;6.60;;;4.03;;
36653;SDS011;22650;49.350;20.898;2022-09-17T05:05:05;9.93;;;4.30;;
36653;SDS011;22650;49.350;20.898;2022-09-17T05:07:39;20.70;;;4.45;;
36653;SDS011;22650;49.350;20.898;2022-09-17T05:10:15;8.45;;;3.60;;
36653;SDS011;22650;49.350;20.898;2022-09-17T05:12:50;10.88;;;4.43;;
36653;SDS011;22650;49.350;20.898;2022-09-17T05:15:25;10.90;;;4.72;;
36653;SDS011;22650;49.350;20.898;2022-09-17T05:17:59;7.63;;;4.65;;
36653;SDS011;22650;49.350;20.898;2022-09-17T05:20:32;12.02;;;5.35;;
36653;SDS011;22650;49.350;20.898;2022-09-17T05:23:06;7.95;;;4.53;;
36653;SDS011;22650;49.350;20.898;2022-09-17T05:25:41;11.20;;;6.15;;
36653;SDS011;22650;49.350;20.898;2022-09-17T05:28:14;7.93;;;4.90;;
36653;SDS011;22650;49.350;20.898;2022-09-17T05:30:48;8.93;;;4.72;;
36653;SDS011;22650;49.350;20.898;2022-09-17T05:33:22;11.02;;;5.28;;
36653;SDS011;22650;49.350;20.898;2022-09-17T05:35:55;7.65;;;4.30;;
36653;SDS011;22650;49.350;20.898;2022-09-17T05:38:28;6.20;;;3.72;;
36653;SDS011;22650;49.350;20.898;2022-09-17T05:41:04;7.32;;;4.43;;
36653;SDS011;22650;49.350;20.898;2022-09-17T05:43:38;7.95;;;4.65;;
36653;SDS011;22650;49.350;20.898;2022-09-17T05:46:12;7.93;;;4.40;;
36653;SDS011;22650;49.350;20.898;2022-09-17T05:48:45;11.48;;;5.20;;
36653;SDS011;22650;49.350;20.898;2022-09-17T05:51:19;7.38;;;4.20;;
36653;SDS011;22650;49.350;20.898;2022-09-17T05:53:53;7.70;;;4.75;;
36653;SDS011;22650;49.350;20.898;2022-09-17T05:56:28;8.02;;;4.28;;
36653;SDS011;22650;49.350;20.898;2022-09-17T05:59:01;7.68;;;4.15;;
36653;SDS011;22650;49.350;20.898;2022-09-17T06:01:35;9.23;;;4.63;;
36653;SDS011;22650;49.350;20.898;2022-09-17T06:04:08;8.18;;;4.00;;
36653;SDS011;22650;49.350;20.898;2022-09-17T06:06:42;14.90;;;4.03;;
36653;SDS011;22650;49.350;20.898;2022-09-17T06:09:16;7.40;;;4.20;;
36653;SDS011;22650;49.350;20.898;2022-09-17T06:11:51;7.25;;;5.03;;
36653;SDS011;22650;49.350;20.898;2022-09-17T06:14:25;5.70;;;3.55;;
36653;SDS011;22650;49.350;20.898;2022-09-17T06:16:58;6.80;;;4.32;;
36653;SDS011;22650;49.350;20.898;2022-09-17T06:19:32;5.68;;;4.13;;
36653;SDS011;22650;49.350;20.898;2022-09-17T06:22:05;6.20;;;4.10;;
36653;SDS011;22650;49.350;20.898;2022-09-17T06:24:38;7.75;;;3.80;;
36653;SDS011;22650;49.350;20.898;2022-09-17T06:27:13;7.38;;;3.47;;
36653;SDS011;22650;49.350;20.898;2022-09-17T06:29:47;5.63;;;3.58;;
36653;SDS011;22650;49.350;20.898;2022-09-17T06:32:21;5.63;;;3.60;;
36653;SDS011;22650;49.350;20.898;2022-09-17T06:34:54;6.88;;;4.22;;
36653;SDS011;22650;49.350;20.898;2022-09-17T06:37:28;7.00;;;3.80;;
36653;SDS011;22650;49.350;20.898;2022-09-17T06:40:03;5.28;;;3.20;;
36653;SDS011;22650;49.350;20.898;2022-09-17T06:42:39;6.32;;;3.35;;
36653;SDS011;22650;49.350;20.898;2022-09-17T06:45:13;5.10;;;3.47;;
36653;SDS011;22650;49.350;20.898;2022-09-17T06:47:47;5.47;;;3.22;;
36653;SDS011;22650;49.350;20.898;2022-09-17T06:50:21;5.85;;;3.47;;
36653;SDS011;22650;49.350;20.898;2022-09-17T06:52:55;5.80;;;3.28;;
36653;SDS011;22650;49.350;20.898;2022-09-17T06:55:29;3.67;;;2.00;;
36653;SDS011;22650;49.350;20.898;2022-09-17T06:58:04;3.95;;;2.72;;
36653;SDS011;22650;49.350;20.898;2022-09-17T07:00:37;6.60;;;3.08;;
36653;SDS011;22650;49.350;20.898;2022-09-17T07:03:11;6.50;;;2.83;;
36653;SDS011;22650;49.350;20.898;2022-09-17T07:05:44;5.93;;;3.45;;
36653;SDS011;22650;49.350;20.898;2022-09-17T07:08:18;6.93;;;3.08;;
36653;SDS011;22650;49.350;20.898;2022-09-17T07:10:53;5.72;;;2.72;;
36653;SDS011;22650;49.350;20.898;2022-09-17T07:13:29;4.78;;;2.65;;
36653;SDS011;22650;49.350;20.898;2022-09-17T07:16:03;2.65;;;1.98;;
36653;SDS011;22650;49.350;20.898;2022-09-17T07:18:38;4.07;;;2.42;;
36653;SDS011;22650;49.350;20.898;2022-09-17T07:21:11;5.82;;;2.28;;
36653;SDS011;22650;49.350;20.898;2022-09-17T07:23:45;4.97;;;1.90;;
36653;SDS011;22650;49.350;20.898;2022-09-17T07:26:18;2.65;;;1.00;;
36653;SDS011;22650;49.350;20.898;2022-09-17T07:28:53;2.03;;;1.38;;
36653;SDS011;22650;49.350;20.898;2022-09-17T07:31:27;2.25;;;1.45;;
36653;SDS011;22650;49.350;20.898;2022-09-17T07:34:00;1.90;;;1.02;;
36653;SDS011;22650;49.350;20.898;2022-09-17T07:36:34;1.95;;;1.02;;
36653;SDS011;22650;49.350;20.898;2022-09-17T07:39:07;2.13;;;1.40;;
36653;SDS011;22650;49.350;20.898;2022-09-17T07:41:42;1.55;;;1.10;;
36653;SDS011;22650;49.350;20.898;2022-09-17T07:44:17;2.08;;;1.23;;
36653;SDS011;22650;49.350;20.898;2022-09-17T07:46:50;2.08;;;1.50;;
36653;SDS011;22650;49.350;20.898;2022-09-17T07:49:24;2.53;;;1.50;;
36653;SDS011;22650;49.350;20.898;2022-09-17T07:51:58;1.33;;;1.15;;
36653;SDS011;22650;49.350;20.898;2022-09-17T07:54:36;3.47;;;1.08;;
36653;SDS011;22650;49.350;20.898;2022-09-17T07:57:10;3.08;;;1.63;;
36653;SDS011;22650;49.350;20.898;2022-09-17T07:59:45;2.53;;;1.38;;
36653;SDS011;22650;49.350;20.898;2022-09-17T08:02:18;1.95;;;1.40;;
36653;SDS011;22650;49.350;20.898;2022-09-17T08:04:55;5.82;;;1.70;;
36653;SDS011;22650;49.350;20.898;2022-09-17T08:07:28;1.02;;;0.98;;
36653;SDS011;22650;49.350;20.898;2022-09-17T08:10:02;1.45;;;1.10;;
36653;SDS011;22650;49.350;20.898;2022-09-17T08:12:35;3.80;;;1.13;;
36653;SDS011;22650;49.350;20.898;2022-09-17T08:15:11;1.85;;;0.82;;
36653;SDS011;22650;49.350;20.898;2022-09-17T08:17:44;0.90;;;0.82;;
36653;SDS011;22650;49.350;20.898;2022-09-17T08:20:18;5.18;;;1.35;;
36653;SDS011;22650;49.350;20.898;2022-09-17T08:22:58;3.60;;;0.98;;
36653;SDS011;22650;49.350;20.898;2022-09-17T08:25:32;1.25;;;1.13;;
36653;SDS011;22650;49.350;20.898;2022-09-17T08:28:06;4.55;;;1.27;;
36653;SDS011;22650;49.350;20.898;2022-09-17T08:30:40;1.42;;;0.80;;
36653;SDS011;22650;49.350;20.898;2022-09-17T08:33:14;3.00;;;0.90;;
36653;SDS011;22650;49.350;20.898;2022-09-17T08:35:51;1.52;;;0.80;;
36653;SDS011;22650;49.350;20.898;2022-09-17T08:38:25;1.75;;;0.98;;
36653;SDS011;22650;49.350;20.898;2022-09-17T08:41:01;1.02;;;0.80;;
36653;SDS011;22650;49.350;20.898;2022-09-17T08:43:44;1.35;;;0.90;;
36653;SDS011;22650;49.350;20.898;2022-09-17T08:46:25;1.50;;;1.00;;
36653;SDS011;22650;49.350;20.898;2022-09-17T08:49:06;13.10;;;1.25;;
36653;SDS011;22650;49.350;20.898;2022-09-17T08:51:46;1.00;;;0.60;;
36653;SDS011;22650;49.350;20.898;2022-09-17T08:54:31;1.90;;;1.10;;
36653;SDS011;22650;49.350;20.898;2022-09-17T08:57:12;0.70;;;0.38;;
36653;SDS011;22650;49.350;20.898;2022-09-17T08:59:54;1.23;;;0.60;;
36653;SDS011;22650;49.350;20.898;2022-09-17T09:02:37;4.75;;;0.70;;
36653;SDS011;22650;49.350;20.898;2022-09-17T09:05:18;1.13;;;0.60;;
36653;SDS011;22650;49.350;20.898;2022-09-17T09:07:55;0.80;;;0.50;;
36653;SDS011;22650;49.350;20.898;2022-09-17T09:10:35;1.10;;;0.68;;
36653;SDS011;22650;49.350;20.898;2022-09-17T09:13:18;1.05;;;0.77;;
36653;SDS011;22650;49.350;20.898;2022-09-17T09:15:55;1.08;;;0.50;;
36653;SDS011;22650;49.350;20.898;2022-09-17T09:18:34;4.13;;;0.82;;
36653;SDS011;22650;49.350;20.898;2022-09-17T09:21:15;0.55;;;0.30;;
36653;SDS011;22650;49.350;20.898;2022-09-17T09:23:55;1.05;;;0.80;;
36653;SDS011;22650;49.350;20.898;2022-09-17T09:26:35;0.30;;;0.30;;
36653;SDS011;22650;49.350;20.898;2022-09-17T09:29:17;1.25;;;0.80;;
36653;SDS011;22650;49.350;20.898;2022-09-17T09:32:01;1.42;;;1.08;;
36653;SDS011;22650;49.350;20.898;2022-09-17T09:34:49;1.20;;;0.70;;
36653;SDS011;22650;49.350;20.898;2022-09-17T09:37:24;3.33;;;0.60;;
36653;SDS011;22650;49.350;20.898;2022-09-17T09:40:02;0.70;;;0.55;;
36653;SDS011;22650;49.350;20.898;2022-09-17T09:42:48;0.93;;;0.60;;
36653;SDS011;22650;49.350;20.898;2022-09-17T09:45:27;1.25;;;0.73;;
36653;SDS011;22650;49.350;20.898;2022-09-17T09:48:11;0.70;;;0.68;;
36653;SDS011;22650;49.350;20.898;2022-09-17T09:50:55;1.02;;;0.63;;
36653;SDS011;22650;49.350;20.898;2022-09-17T09:53:41;0.95;;;0.50;;
36653;SDS011;22650;49.350;20.898;2022-09-17T09:56:27;1.38;;;0.90;;
36653;SDS011;22650;49.350;20.898;2022-09-17T09:59:10;1.17;;;0.60;;
36653;SDS011;22650;49.350;20.898;2022-09-17T10:01:44;11.18;;;3.53;;
36653;SDS011;22650;49.350;20.898;2022-09-17T10:04:19;13.40;;;5.72;;
36653;SDS011;22650;49.350;20.898;2022-09-17T10:06:58;2.85;;;1.20;;
36653;SDS011;22650;49.350;20.898;2022-09-17T10:09:35;0.65;;;0.50;;
36653;SDS011;22650;49.350;20.898;2022-09-17T10:12:16;1.23;;;0.73;;
36653;SDS011;22650;49.350;20.898;2022-09-17T10:14:49;1.17;;;0.68;;
36653;SDS011;22650;49.350;20.898;2022-09-17T10:17:24;1.30;;;0.57;;
36653;SDS011;22650;49.350;20.898;2022-09-17T10:20:12;0.77;;;0.40;;
36653;SDS011;22650;49.350;20.898;2022-09-17T10:22:54;1.40;;;0.85;;
36653;SDS011;22650;49.350;20.898;2022-09-17T10:25:28;3.60;;;0.77;;
36653;SDS011;22650;49.350;20.898;2022-09-17T10:28:04;11.15;;;3.33;;
36653;SDS011;22650;49.350;20.898;2022-09-17T10:30:56;6.07;;;1.95;;
36653;SDS011;22650;49.350;20.898;2022-09-17T10:33:33;1.40;;;0.70;;
36653;SDS011;22650;49.350;20.898;2022-09-17T10:36:08;11.43;;;2.78;;
36653;SDS011;22650;49.350;20.898;2022-09-17T10:38:46;24.23;;;3.83;;
36653;SDS011;22650;49.350;20.898;2022-09-17T10:41:20;2.55;;;0.98;;
36653;SDS011;22650;49.350;20.898;2022-09-17T10:43:55;4.57;;;0.88;;
36653;SDS011;22650;49.350;20.898;2022-09-17T10:49:27;1.92;;;1.50;;
36653;SDS011;22650;49.350;20.898;2022-09-17T10:52:09;2.80;;;1.23;;
36653;SDS011;22650;49.350;20.898;2022-09-17T10:58:01;15.52;;;4.68;;
36653;SDS011;22650;49.350;20.898;2022-09-17T11:00:46;4.20;;;2.33;;
36653;SDS011;22650;49.350;20.898;2022-09-17T11:03:48;7.90;;;2.67;;
36653;SDS011;22650;49.350;20.898;2022-09-17T11:09:35;3.85;;;1.38;;
36653;SDS011;22650;49.350;20.898;2022-09-17T11:12:22;1.65;;;0.65;;
36653;SDS011;22650;49.350;20.898;2022-09-17T11:15:17;1.83;;;0.60;;
36653;SDS011;22650;49.350;20.898;2022-09-17T11:18:06;5.85;;;0.70;;
36653;SDS011;22650;49.350;20.898;2022-09-17T11:20:56;0.70;;;0.50;;
36653;SDS011;22650;49.350;20.898;2022-09-17T11:23:48;7.88;;;0.70;;
36653;SDS011;22650;49.350;20.898;2022-09-17T11:26:40;1.10;;;0.55;;
36653;SDS011;22650;49.350;20.898;2022-09-17T11:29:28;1.73;;;0.57;;
36653;SDS011;22650;49.350;20.898;2022-09-17T11:32:27;1.83;;;0.80;;
36653;SDS011;22650;49.350;20.898;2022-09-17T11:35:18;0.82;;;0.50;;
36653;SDS011;22650;49.350;20.898;2022-09-17T11:37:55;0.90;;;0.60;;
36653;SDS011;22650;49.350;20.898;2022-09-17T11:40:35;3.10;;;0.70;;
36653;SDS011;22650;49.350;20.898;2022-09-17T11:43:14;4.90;;;0.75;;
36653;SDS011;22650;49.350;20.898;2022-09-17T11:46:01;5.40;;;0.77;;
36653;SDS011;22650;49.350;20.898;2022-09-17T11:48:42;4.60;;;0.75;;
36653;SDS011;22650;49.350;20.898;2022-09-17T11:51:21;0.70;;;0.50;;
36653;SDS011;22650;49.350;20.898;2022-09-17T11:53:59;0.68;;;0.68;;
36653;SDS011;22650;49.350;20.898;2022-09-17T11:56:39;0.75;;;0.50;;
36653;SDS011;22650;49.350;20.898;2022-09-17T11:59:17;2.80;;;1.05;;
36653;SDS011;22650;49.350;20.898;2022-09-17T12:01:57;0.60;;;0.55;;
36653;SDS011;22650;49.350;20.898;2022-09-17T12:04:40;0.82;;;0.77;;
36653;SDS011;22650;49.350;20.898;2022-09-17T12:07:20;0.75;;;0.60;;
36653;SDS011;22650;49.350;20.898;2022-09-17T12:10:06;2.45;;;0.50;;
36653;SDS011;22650;49.350;20.898;2022-09-17T12:12:51;4.03;;;0.73;;
36653;SDS011;22650;49.350;20.898;2022-09-17T12:15:29;0.98;;;0.70;;
36653;SDS011;22650;49.350;20.898;2022-09-17T12:18:11;0.70;;;0.40;;
36653;SDS011;22650;49.350;20.898;2022-09-17T12:21:04;16.77;;;7.18;;
36653;SDS011;22650;49.350;20.898;2022-09-17T12:23:41;1.42;;;0.90;;
36653;SDS011;22650;49.350;20.898;2022-09-17T12:32:39;1.08;;;0.80;;
36653;SDS011;22650;49.350;20.898;2022-09-17T12:41:40;1.77;;;0.75;;
36653;SDS011;22650;49.350;20.898;2022-09-17T12:44:27;1.40;;;0.90;;
36653;SDS011;22650;49.350;20.898;2022-09-17T12:50:24;3.58;;;0.68;;
36653;SDS011;22650;49.350;20.898;2022-09-17T12:53:14;1.27;;;0.73;;
36653;SDS011;22650;49.350;20.898;2022-09-17T12:55:57;2.58;;;0.80;;
36653;SDS011;22650;49.350;20.898;2022-09-17T12:59:00;2.35;;;1.15;;
36653;SDS011;22650;49.350;20.898;2022-09-17T13:01:42;2.17;;;1.00;;
36653;SDS011;22650;49.350;20.898;2022-09-17T13:04:23;1.20;;;0.85;;
36653;SDS011;22650;49.350;20.898;2022-09-17T13:13:42;4.18;;;0.93;;
36653;SDS011;22650;49.350;20.898;2022-09-17T13:18:58;1.17;;;0.82;;
36653;SDS011;22650;49.350;20.898;2022-09-17T13:21:48;1.25;;;0.90;;
36653;SDS011;22650;49.350;20.898;2022-09-17T13:24:26;3.13;;;1.10;;
36653;SDS011;22650;49.350;20.898;2022-09-17T13:27:02;1.35;;;0.82;;
36653;SDS011;22650;49.350;20.898;2022-09-17T13:32:47;1.20;;;1.10;;
36653;SDS011;22650;49.350;20.898;2022-09-17T13:38:23;1.65;;;1.30;;
36653;SDS011;22650;49.350;20.898;2022-09-17T13:43:49;4.80;;;2.50;;
36653;SDS011;22650;49.350;20.898;2022-09-17T13:46:27;4.82;;;2.35;;
36653;SDS011;22650;49.350;20.898;2022-09-17T13:49:04;6.53;;;3.42;;
36653;SDS011;22650;49.350;20.898;2022-09-17T13:51:45;3.95;;;2.35;;
36653;SDS011;22650;49.350;20.898;2022-09-17T13:54:22;3.75;;;1.88;;
36653;SDS011;22650;49.350;20.898;2022-09-17T13:57:12;4.10;;;1.95;;
36653;SDS011;22650;49.350;20.898;2022-09-17T13:59:53;7.13;;;1.58;;
36653;SDS011;22650;49.350;20.898;2022-09-17T14:02:34;4.38;;;1.67;;
36653;SDS011;22650;49.350;20.898;2022-09-17T14:08:09;4.30;;;1.88;;
36653;SDS011;22650;49.350;20.898;2022-09-17T14:10:59;4.80;;;2.28;;
36653;SDS011;22650;49.350;20.898;2022-09-17T14:13:51;6.00;;;2.08;;
36653;SDS011;22650;49.350;20.898;2022-09-17T14:16:32;16.58;;;5.55;;
36653;SDS011;22650;49.350;20.898;2022-09-17T14:19:25;10.05;;;4.45;;
36653;SDS011;22650;49.350;20.898;2022-09-17T14:22:11;5.97;;;1.95;;
36653;SDS011;22650;49.350;20.898;2022-09-17T14:24:50;3.38;;;1.70;;
36653;SDS011;22650;49.350;20.898;2022-09-17T14:27:28;5.20;;;2.90;;
36653;SDS011;22650;49.350;20.898;2022-09-17T14:30:16;6.95;;;3.55;;
36653;SDS011;22650;49.350;20.898;2022-09-17T14:32:52;6.10;;;2.97;;
36653;SDS011;22650;49.350;20.898;2022-09-17T14:35:35;6.85;;;3.53;;
36653;SDS011;22650;49.350;20.898;2022-09-17T14:38:11;5.32;;;2.75;;
36653;SDS011;22650;49.350;20.898;2022-09-17T14:40:48;6.35;;;2.60;;
36653;SDS011;22650;49.350;20.898;2022-09-17T14:43:30;4.72;;;2.80;;
36653;SDS011;22650;49.350;20.898;2022-09-17T14:46:13;4.93;;;2.30;;
36653;SDS011;22650;49.350;20.898;2022-09-17T14:48:51;3.78;;;2.20;;
36653;SDS011;22650;49.350;20.898;2022-09-17T14:51:27;7.55;;;3.65;;
36653;SDS011;22650;49.350;20.898;2022-09-17T14:54:14;7.22;;;2.72;;
36653;SDS011;22650;49.350;20.898;2022-09-17T14:56:59;6.95;;;2.33;;
36653;SDS011;22650;49.350;20.898;2022-09-17T14:59:45;5.60;;;2.22;;
36653;SDS011;22650;49.350;20.898;2022-09-17T15:02:28;2.47;;;1.63;;
36653;SDS011;22650;49.350;20.898;2022-09-17T15:05:15;4.93;;;2.58;;
36653;SDS011;22650;49.350;20.898;2022-09-17T15:08:02;5.40;;;3.60;;
36653;SDS011;22650;49.350;20.898;2022-09-17T15:10:38;10.48;;;4.68;;
36653;SDS011;22650;49.350;20.898;2022-09-17T15:13:20;7.50;;;4.50;;
36653;SDS011;22650;49.350;20.898;2022-09-17T15:15:58;6.65;;;2.92;;
36653;SDS011;22650;49.350;20.898;2022-09-17T15:18:37;6.90;;;2.40;;
36653;SDS011;22650;49.350;20.898;2022-09-17T15:21:16;11.95;;;4.53;;
36653;SDS011;22650;49.350;20.898;2022-09-17T15:24:02;9.35;;;3.63;;
36653;SDS011;22650;49.350;20.898;2022-09-17T15:26:45;7.13;;;3.50;;
36653;SDS011;22650;49.350;20.898;2022-09-17T15:29:22;8.00;;;3.50;;
36653;SDS011;22650;49.350;20.898;2022-09-17T15:32:01;6.47;;;3.95;;
36653;SDS011;22650;49.350;20.898;2022-09-17T15:34:36;37.40;;;14.10;;
36653;SDS011;22650;49.350;20.898;2022-09-17T15:37:15;11.02;;;4.88;;
36653;SDS011;22650;49.350;20.898;2022-09-17T15:39:52;5.95;;;3.38;;
36653;SDS011;22650;49.350;20.898;2022-09-17T15:42:30;7.28;;;3.38;;
36653;SDS011;22650;49.350;20.898;2022-09-17T15:45:08;7.43;;;3.50;;
36653;SDS011;22650;49.350;20.898;2022-09-17T15:47:50;17.77;;;5.05;;
36653;SDS011;22650;49.350;20.898;2022-09-17T15:50:25;7.88;;;3.80;;
36653;SDS011;22650;49.350;20.898;2022-09-17T15:53:11;9.38;;;4.75;;
36653;SDS011;22650;49.350;20.898;2022-09-17T15:55:56;7.63;;;3.95;;
36653;SDS011;22650;49.350;20.898;2022-09-17T15:58:35;7.60;;;3.25;;
36653;SDS011;22650;49.350;20.898;2022-09-17T16:04:30;8.63;;;3.70;;
36653;SDS011;22650;49.350;20.898;2022-09-17T16:07:27;5.00;;;2.70;;
36653;SDS011;22650;49.350;20.898;2022-09-17T16:10:02;7.45;;;4.13;;
36653;SDS011;22650;49.350;20.898;2022-09-17T16:12:37;7.93;;;4.32;;
36653;SDS011;22650;49.350;20.898;2022-09-17T16:15:11;9.02;;;4.88;;
36653;SDS011;22650;49.350;20.898;2022-09-17T16:17:45;14.30;;;5.60;;
36653;SDS011;22650;49.350;20.898;2022-09-17T16:20:20;8.85;;;4.68;;
36653;SDS011;22650;49.350;20.898;2022-09-17T16:22:55;15.43;;;4.30;;
36653;SDS011;22650;49.350;20.898;2022-09-17T16:25:28;9.88;;;4.80;;
36653;SDS011;22650;49.350;20.898;2022-09-17T16:28:05;7.40;;;3.97;;
36653;SDS011;22650;49.350;20.898;2022-09-17T16:30:42;6.93;;;4.05;;
36653;SDS011;22650;49.350;20.898;2022-09-17T16:33:18;8.45;;;4.18;;
36653;SDS011;22650;49.350;20.898;2022-09-17T16:35:51;6.35;;;4.25;;
36653;SDS011;22650;49.350;20.898;2022-09-17T16:38:28;10.07;;;4.35;;
36653;SDS011;22650;49.350;20.898;2022-09-17T16:41:03;7.32;;;4.43;;